sensor_id;sensor_type;location;lat;lon;timestamp;pressure;altitude;pressure_sealevel;temperature;humidity
70954;BME280;58618;47.490;8.736;2022-09-24T00:01:39;96328.94;;;11.99;100.00
70954;BME280;58618;47.490;8.736;2022-09-24T00:04:27;96325.09;;;11.97;100.00
70954;BME280;58618;47.490;8.736;2022-09-24T00:07:14;96330.28;;;11.97;100.00
70954;BME280;58618;47.490;8.736;2022-09-24T00:10:03;96332.19;;;11.91;100.00
70954;BME280;58618;47.490;8.736;2022-09-24T00:12:51;96326.53;;;11.89;100.00
70954;BME280;58618;47.490;8.736;2022-09-24T00:15:40;96324.88;;;11.79;100.00
70954;BME280;58618;47.490;8.736;2022-09-24T00:18:28;96318.97;;;11.79;100.00
70954;BME280;58618;47.490;8.736;2022-09-24T00:21:17;96320.28;;;11.76;100.00
70954;BME280;58618;47.490;8.736;2022-09-24T00:24:08;96312.81;;;11.75;100.00
70954;BME280;58618;47.490;8.736;2022-09-24T00:26:57;96315.88;;;11.77;100.00
70954;BME280;58618;47.490;8.736;2022-09-24T00:29:43;96300.22;;;11.87;100.00
70954;BME280;58618;47.490;8.736;2022-09-24T00:32:30;96299.66;;;12.04;100.00
70954;BME280;58618;47.490;8.736;2022-09-24T00:35:18;96294.47;;;12.17;100.00
70954;BME280;58618;47.490;8.736;2022-09-24T00:38:05;96290.47;;;12.25;100.00
70954;BME280;58618;47.490;8.736;2022-09-24T00:40:53;96281.56;;;12.17;100.00
70954;BME280;58618;47.490;8.736;2022-09-24T00:43:41;96284.63;;;12.19;100.00
70954;BME280;58618;47.490;8.736;2022-09-24T00:46:31;96280.41;;;12.23;100.00
70954;BME280;58618;47.490;8.736;2022-09-24T00:49:24;96279.53;;;12.28;100.00
70954;BME280;58618;47.490;8.736;2022-09-24T00:52:11;96281.84;;;12.30;100.00
70954;BME280;58618;47.490;8.736;2022-09-24T00:54:59;96277.81;;;12.23;100.00
70954;BME280;58618;47.490;8.736;2022-09-24T00:57:47;96279.53;;;12.28;100.00
70954;BME280;58618;47.490;8.736;2022-09-24T01:00:38;96269.03;;;12.24;100.00
70954;BME280;58618;47.490;8.736;2022-09-24T01:03:27;96296.78;;;12.33;100.00
70954;BME280;58618;47.490;8.736;2022-09-24T01:06:16;96304.06;;;12.44;100.00
70954;BME280;58618;47.490;8.736;2022-09-24T01:09:04;96311.16;;;12.39;100.00
70954;BME280;58618;47.490;8.736;2022-09-24T01:11:59;96310.75;;;12.59;100.00
70954;BME280;58618;47.490;8.736;2022-09-24T01:14:59;96316.91;;;12.63;100.00
70954;BME280;58618;47.490;8.736;2022-09-24T01:17:57;96314.97;;;12.55;100.00
70954;BME280;58618;47.490;8.736;2022-09-24T01:24:38;96320.41;;;12.81;100.00
70954;BME280;58618;47.490;8.736;2022-09-24T01:27:42;96319.53;;;12.85;100.00
70954;BME280;58618;47.490;8.736;2022-09-24T01:30:37;96321.06;;;12.86;100.00
70954;BME280;58618;47.490;8.736;2022-09-24T01:33:27;96314.78;;;12.79;100.00
70954;BME280;58618;47.490;8.736;2022-09-24T01:36:16;96313.66;;;12.44;100.00
70954;BME280;58618;47.490;8.736;2022-09-24T01:39:05;96323.03;;;12.40;100.00
70954;BME280;58618;47.490;8.736;2022-09-24T01:41:53;96318.50;;;12.59;100.00
70954;BME280;58618;47.490;8.736;2022-09-24T01:44:42;96315.53;;;12.65;100.00
70954;BME280;58618;47.490;8.736;2022-09-24T01:47:33;96309.03;;;12.68;100.00
70954;BME280;58618;47.490;8.736;2022-09-24T01:50:27;96298.88;;;12.72;100.00
70954;BME280;58618;47.490;8.736;2022-09-24T01:53:16;96302.88;;;12.78;100.00
70954;BME280;58618;47.490;8.736;2022-09-24T01:56:08;96293.09;;;12.75;100.00
70954;BME280;58618;47.490;8.736;2022-09-24T01:59:01;96268.41;;;12.68;100.00
70954;BME280;58618;47.490;8.736;2022-09-24T02:01:54;96288.69;;;12.75;100.00
70954;BME280;58618;47.490;8.736;2022-09-24T02:04:46;96272.63;;;12.51;100.00
70954;BME280;58618;47.490;8.736;2022-09-24T02:07:41;96273.03;;;12.58;100.00
70954;BME280;58618;47.490;8.736;2022-09-24T02:10:35;96273.97;;;12.62;100.00
70954;BME280;58618;47.490;8.736;2022-09-24T02:13:25;96281.63;;;12.67;100.00
70954;BME280;58618;47.490;8.736;2022-09-24T02:16:16;96285.75;;;12.68;100.00
70954;BME280;58618;47.490;8.736;2022-09-24T02:19:07;96275.28;;;12.73;100.00
70954;BME280;58618;47.490;8.736;2022-09-24T02:21:57;96263.41;;;12.72;100.00
70954;BME280;58618;47.490;8.736;2022-09-24T02:24:48;96267.63;;;12.68;100.00
70954;BME280;58618;47.490;8.736;2022-09-24T02:27:36;96260.91;;;12.67;100.00
70954;BME280;58618;47.490;8.736;2022-09-24T02:30:24;96247.28;;;12.75;100.00
70954;BME280;58618;47.490;8.736;2022-09-24T02:33:12;96249.75;;;12.80;100.00
70954;BME280;58618;47.490;8.736;2022-09-24T02:36:19;96244.13;;;12.78;100.00
70954;BME280;58618;47.490;8.736;2022-09-24T02:39:11;96237.31;;;12.82;100.00
70954;BME280;58618;47.490;8.736;2022-09-24T02:41:59;96230.44;;;12.64;100.00
70954;BME280;58618;47.490;8.736;2022-09-24T02:44:46;96244.34;;;12.68;100.00
70954;BME280;58618;47.490;8.736;2022-09-24T02:47:34;96239.66;;;12.56;100.00
70954;BME280;58618;47.490;8.736;2022-09-24T02:50:21;96239.84;;;12.60;100.00
70954;BME280;58618;47.490;8.736;2022-09-24T02:53:09;96242.91;;;12.62;100.00
70954;BME280;58618;47.490;8.736;2022-09-24T02:55:58;96244.84;;;12.56;100.00
70954;BME280;58618;47.490;8.736;2022-09-24T02:58:46;96232.69;;;12.57;100.00
70954;BME280;58618;47.490;8.736;2022-09-24T03:01:34;96220.84;;;12.64;100.00
70954;BME280;58618;47.490;8.736;2022-09-24T03:04:21;96222.25;;;12.35;100.00
70954;BME280;58618;47.490;8.736;2022-09-24T03:07:08;96230.13;;;12.30;100.00
70954;BME280;58618;47.490;8.736;2022-09-24T03:09:56;96226.50;;;12.31;100.00
70954;BME280;58618;47.490;8.736;2022-09-24T03:12:46;96215.56;;;12.34;100.00
70954;BME280;58618;47.490;8.736;2022-09-24T03:15:33;96213.81;;;12.43;100.00
70954;BME280;58618;47.490;8.736;2022-09-24T03:18:20;96217.25;;;12.52;100.00
70954;BME280;58618;47.490;8.736;2022-09-24T03:21:10;96219.38;;;12.50;100.00
70954;BME280;58618;47.490;8.736;2022-09-24T03:23:58;96228.56;;;12.56;100.00
70954;BME280;58618;47.490;8.736;2022-09-24T03:26:46;96220.91;;;12.51;100.00
70954;BME280;58618;47.490;8.736;2022-09-24T03:29:34;96216.59;;;12.46;100.00
70954;BME280;58618;47.490;8.736;2022-09-24T03:32:39;96219.94;;;12.47;100.00
70954;BME280;58618;47.490;8.736;2022-09-24T03:35:27;96230.75;;;12.49;100.00
70954;BME280;58618;47.490;8.736;2022-09-24T03:38:14;96228.16;;;12.49;100.00
70954;BME280;58618;47.490;8.736;2022-09-24T03:41:02;96225.13;;;12.47;100.00
70954;BME280;58618;47.490;8.736;2022-09-24T03:43:50;96215.00;;;12.37;100.00
70954;BME280;58618;47.490;8.736;2022-09-24T03:46:38;96209.13;;;12.45;100.00
70954;BME280;58618;47.490;8.736;2022-09-24T03:49:26;96219.94;;;12.47;100.00
70954;BME280;58618;47.490;8.736;2022-09-24T03:52:13;96202.22;;;12.40;100.00
70954;BME280;58618;47.490;8.736;2022-09-24T03:55:00;96224.91;;;12.57;100.00
70954;BME280;58618;47.490;8.736;2022-09-24T03:57:48;96228.38;;;12.52;100.00
70954;BME280;58618;47.490;8.736;2022-09-24T04:00:35;96222.53;;;12.47;100.00
70954;BME280;58618;47.490;8.736;2022-09-24T04:03:24;96227.72;;;12.47;100.00
70954;BME280;58618;47.490;8.736;2022-09-24T04:06:12;96227.81;;;12.42;100.00
70954;BME280;58618;47.490;8.736;2022-09-24T04:09:00;96227.63;;;12.38;100.00
70954;BME280;58618;47.490;8.736;2022-09-24T04:11:47;96221.47;;;12.48;100.00
70954;BME280;58618;47.490;8.736;2022-09-24T04:14:37;96228.56;;;12.56;100.00
70954;BME280;58618;47.490;8.736;2022-09-24T04:17:24;96234.66;;;12.60;100.00
70954;BME280;58618;47.490;8.736;2022-09-24T04:20:18;96217.06;;;12.48;100.00
70954;BME280;58618;47.490;8.736;2022-09-24T04:23:09;96226.06;;;12.51;100.00
70954;BME280;58618;47.490;8.736;2022-09-24T04:25:56;96220.91;;;12.51;100.00
70954;BME280;58618;47.490;8.736;2022-09-24T04:28:45;96223.75;;;12.49;100.00
70954;BME280;58618;47.490;8.736;2022-09-24T04:31:34;96224.72;;;12.53;100.00
70954;BME280;58618;47.490;8.736;2022-09-24T04:34:21;96232.56;;;12.62;100.00
70954;BME280;58618;47.490;8.736;2022-09-24T04:37:09;96227.41;;;12.62;100.00
70954;BME280;58618;47.490;8.736;2022-09-24T04:39:57;96230.44;;;12.64;100.00
70954;BME280;58618;47.490;8.736;2022-09-24T04:42:44;96240.34;;;12.62;100.00
70954;BME280;58618;47.490;8.736;2022-09-24T04:45:32;96245.41;;;12.67;100.00
70954;BME280;58618;47.490;8.736;2022-09-24T04:48:20;96233.03;;;12.64;100.00
70954;BME280;58618;47.490;8.736;2022-09-24T04:51:09;96236.00;;;12.71;100.00
70954;BME280;58618;47.490;8.736;2022-09-24T04:53:57;96231.97;;;12.65;100.00
70954;BME280;58618;47.490;8.736;2022-09-24T04:56:47;96244.25;;;12.73;100.00
70954;BME280;58618;47.490;8.736;2022-09-24T04:59:35;96247.09;;;12.72;100.00
70954;BME280;58618;47.490;8.736;2022-09-24T05:02:22;96257.94;;;12.74;100.00
70954;BME280;58618;47.490;8.736;2022-09-24T05:05:10;96251.91;;;12.64;100.00
70954;BME280;58618;47.490;8.736;2022-09-24T05:07:58;96253.72;;;12.78;100.00
70954;BME280;58618;47.490;8.736;2022-09-24T05:10:47;96252.44;;;12.75;100.00
70954;BME280;58618;47.490;8.736;2022-09-24T05:13:35;96250.94;;;12.74;100.00
70954;BME280;58618;47.490;8.736;2022-09-24T05:16:22;96252.44;;;12.75;100.00
70954;BME280;58618;47.490;8.736;2022-09-24T05:19:10;96257.84;;;12.65;100.00
70954;BME280;58618;47.490;8.736;2022-09-24T05:21:57;96259.88;;;12.68;100.00
70954;BME280;58618;47.490;8.736;2022-09-24T05:24:44;96266.47;;;12.74;100.00
70954;BME280;58618;47.490;8.736;2022-09-24T05:27:33;96262.47;;;12.68;100.00
70954;BME280;58618;47.490;8.736;2022-09-24T05:30:22;96261.09;;;12.70;100.00
70954;BME280;58618;47.490;8.736;2022-09-24T05:33:09;96266.47;;;12.74;100.00
70954;BME280;58618;47.490;8.736;2022-09-24T05:35:57;96276.41;;;12.81;100.00
70954;BME280;58618;47.490;8.736;2022-09-24T05:38:44;96282.34;;;12.81;100.00
70954;BME280;58618;47.490;8.736;2022-09-24T05:41:31;96271.06;;;12.77;100.00
70954;BME280;58618;47.490;8.736;2022-09-24T05:44:20;96279.31;;;12.79;100.00
70954;BME280;58618;47.490;8.736;2022-09-24T05:47:08;96278.13;;;12.85;100.00
70954;BME280;58618;47.490;8.736;2022-09-24T05:49:56;96270.94;;;12.82;100.00
70954;BME280;58618;47.490;8.736;2022-09-24T05:52:43;96268.34;;;12.82;100.00
70954;BME280;58618;47.490;8.736;2022-09-24T05:55:31;96273.72;;;12.86;100.00
70954;BME280;58618;47.490;8.736;2022-09-24T05:58:18;96270.47;;;12.80;100.00
70954;BME280;58618;47.490;8.736;2022-09-24T06:01:07;96277.00;;;12.78;100.00
70954;BME280;58618;47.490;8.736;2022-09-24T06:03:54;96288.47;;;12.85;100.00
70954;BME280;58618;47.490;8.736;2022-09-24T06:06:42;96279.66;;;12.86;100.00
70954;BME280;58618;47.490;8.736;2022-09-24T06:09:30;96285.59;;;12.87;100.00
70954;BME280;58618;47.490;8.736;2022-09-24T06:12:17;96288.38;;;12.90;100.00
70954;BME280;58618;47.490;8.736;2022-09-24T06:15:08;96288.84;;;12.92;100.00
70954;BME280;58618;47.490;8.736;2022-09-24T06:17:56;96291.50;;;13.01;100.00
70954;BME280;58618;47.490;8.736;2022-09-24T06:20:45;96288.63;;;13.02;100.00
70954;BME280;58618;47.490;8.736;2022-09-24T06:23:33;96282.88;;;13.05;100.00
70954;BME280;58618;47.490;8.736;2022-09-24T06:26:21;96279.09;;;12.89;100.00
70954;BME280;58618;47.490;8.736;2022-09-24T06:29:08;96278.66;;;12.96;100.00
70954;BME280;58618;47.490;8.736;2022-09-24T06:31:55;96284.59;;;12.96;100.00
70954;BME280;58618;47.490;8.736;2022-09-24T06:34:44;96287.97;;;12.97;100.00
70954;BME280;58618;47.490;8.736;2022-09-24T06:37:32;96275.03;;;12.97;100.00
70954;BME280;58618;47.490;8.736;2022-09-24T06:40:19;96282.28;;;13.08;100.00
70954;BME280;58618;47.490;8.736;2022-09-24T06:43:10;96283.72;;;13.15;100.00
70954;BME280;58618;47.490;8.736;2022-09-24T06:45:59;96285.72;;;13.18;100.00
70954;BME280;58618;47.490;8.736;2022-09-24T06:48:53;96289.56;;;13.20;100.00
70954;BME280;58618;47.490;8.736;2022-09-24T06:51:42;96289.91;;;13.27;100.00
70954;BME280;58618;47.490;8.736;2022-09-24T06:54:29;96281.19;;;13.23;100.00
70954;BME280;58618;47.490;8.736;2022-09-24T06:57:17;96299.28;;;13.37;100.00
70954;BME280;58618;47.490;8.736;2022-09-24T07:00:05;96291.53;;;13.37;100.00
70954;BME280;58618;47.490;8.736;2022-09-24T07:02:53;96294.31;;;13.49;100.00
70954;BME280;58618;47.490;8.736;2022-09-24T07:05:40;96290.91;;;13.62;100.00
70954;BME280;58618;47.490;8.736;2022-09-24T07:08:29;96276.56;;;13.65;100.00
70954;BME280;58618;47.490;8.736;2022-09-24T07:11:16;96290.41;;;13.82;100.00
70954;BME280;58618;47.490;8.736;2022-09-24T07:14:04;96298.97;;;13.91;100.00
70954;BME280;58618;47.490;8.736;2022-09-24T07:16:51;96296.59;;;13.95;100.00
70954;BME280;58618;47.490;8.736;2022-09-24T07:19:39;96287.66;;;13.79;100.00
70954;BME280;58618;47.490;8.736;2022-09-24T07:22:29;96301.00;;;13.94;100.00
70954;BME280;58618;47.490;8.736;2022-09-24T07:25:18;96304.66;;;13.93;100.00
70954;BME280;58618;47.490;8.736;2022-09-24T07:28:07;96298.78;;;13.79;100.00
70954;BME280;58618;47.490;8.736;2022-09-24T07:30:57;96309.16;;;13.79;100.00
70954;BME280;58618;47.490;8.736;2022-09-24T07:33:44;96313.13;;;13.85;100.00
70954;BME280;58618;47.490;8.736;2022-09-24T07:36:31;96313.63;;;13.87;100.00
70954;BME280;58618;47.490;8.736;2022-09-24T07:39:19;96313.44;;;13.84;100.00
70954;BME280;58618;47.490;8.736;2022-09-24T07:42:07;96312.53;;;13.80;100.00
70954;BME280;58618;47.490;8.736;2022-09-24T07:44:55;96312.94;;;13.73;100.00
70954;BME280;58618;47.490;8.736;2022-09-24T07:47:42;96317.50;;;13.76;100.00
70954;BME280;58618;47.490;8.736;2022-09-24T07:50:31;96319.66;;;13.74;100.00
70954;BME280;58618;47.490;8.736;2022-09-24T07:53:19;96316.59;;;13.72;100.00
70954;BME280;58618;47.490;8.736;2022-09-24T07:56:06;96318.88;;;13.74;100.00
70954;BME280;58618;47.490;8.736;2022-09-24T07:58:55;96321.75;;;13.72;100.00
70954;BME280;58618;47.490;8.736;2022-09-24T08:01:42;96321.00;;;13.72;100.00
70954;BME280;58618;47.490;8.736;2022-09-24T08:04:30;96318.13;;;13.73;100.00
70954;BME280;58618;47.490;8.736;2022-09-24T08:07:17;96324.34;;;13.72;100.00
70954;BME280;58618;47.490;8.736;2022-09-24T08:10:06;96336.16;;;13.78;100.00
70954;BME280;58618;47.490;8.736;2022-09-24T08:12:53;96331.66;;;13.70;100.00
70954;BME280;58618;47.490;8.736;2022-09-24T08:15:43;96320.06;;;13.68;100.00
70954;BME280;58618;47.490;8.736;2022-09-24T08:18:31;96331.66;;;13.70;100.00
70954;BME280;58618;47.490;8.736;2022-09-24T08:21:19;96329.44;;;13.55;100.00
70954;BME280;58618;47.490;8.736;2022-09-24T08:24:07;96330.69;;;13.58;100.00
70954;BME280;58618;47.490;8.736;2022-09-24T08:26:54;96329.06;;;13.70;100.00
70954;BME280;58618;47.490;8.736;2022-09-24T08:29:41;96330.47;;;13.54;100.00
70954;BME280;58618;47.490;8.736;2022-09-24T08:32:30;96322.81;;;13.49;100.00
70954;BME280;58618;47.490;8.736;2022-09-24T08:35:18;96328.09;;;13.58;100.00
70954;BME280;58618;47.490;8.736;2022-09-24T08:38:05;96316.81;;;13.62;100.00
70954;BME280;58618;47.490;8.736;2022-09-24T08:40:57;96314.81;;;13.59;100.00
70954;BME280;58618;47.490;8.736;2022-09-24T08:43:52;96318.06;;;13.65;100.00
70954;BME280;58618;47.490;8.736;2022-09-24T08:46:45;96304.56;;;13.76;100.00
70954;BME280;58618;47.490;8.736;2022-09-24T08:49:59;96305.03;;;13.78;100.00
70954;BME280;58618;47.490;8.736;2022-09-24T08:52:56;96315.81;;;14.03;100.00
70954;BME280;58618;47.490;8.736;2022-09-24T08:55:49;96321.34;;;14.10;100.00
70954;BME280;58618;47.490;8.736;2022-09-24T08:58:40;96317.44;;;14.21;100.00
70954;BME280;58618;47.490;8.736;2022-09-24T09:01:34;96314.72;;;14.26;100.00
70954;BME280;58618;47.490;8.736;2022-09-24T09:04:31;96305.88;;;14.27;100.00
70954;BME280;58618;47.490;8.736;2022-09-24T09:07:22;96308.13;;;14.20;100.00
70954;BME280;58618;47.490;8.736;2022-09-24T09:10:14;96307.31;;;14.11;100.00
70954;BME280;58618;47.490;8.736;2022-09-24T09:13:05;96321.44;;;14.27;100.00
70954;BME280;58618;47.490;8.736;2022-09-24T09:16:00;96324.47;;;14.29;100.00
70954;BME280;58618;47.490;8.736;2022-09-24T09:18:52;96310.44;;;14.30;100.00
70954;BME280;58618;47.490;8.736;2022-09-24T09:21:43;96324.22;;;14.39;100.00
70954;BME280;58618;47.490;8.736;2022-09-24T09:24:36;96319.63;;;14.36;100.00
70954;BME280;58618;47.490;8.736;2022-09-24T09:27:25;96314.81;;;14.43;100.00
70954;BME280;58618;47.490;8.736;2022-09-24T09:30:17;96324.91;;;14.53;100.00
70954;BME280;58618;47.490;8.736;2022-09-24T09:33:16;96317.13;;;14.62;100.00
70954;BME280;58618;47.490;8.736;2022-09-24T09:36:20;96324.00;;;14.66;100.00
70954;BME280;58618;47.490;8.736;2022-09-24T09:39:22;96323.09;;;14.62;100.00
70954;BME280;58618;47.490;8.736;2022-09-24T09:42:25;96322.81;;;14.64;100.00
70954;BME280;58618;47.490;8.736;2022-09-24T09:45:21;96327.66;;;14.65;100.00
70954;BME280;58618;47.490;8.736;2022-09-24T09:48:12;96321.22;;;14.46;100.00
70954;BME280;58618;47.490;8.736;2022-09-24T09:51:05;96317.91;;;14.62;100.00
70954;BME280;58618;47.490;8.736;2022-09-24T09:53:54;96324.50;;;14.68;100.00
70954;BME280;58618;47.490;8.736;2022-09-24T09:56:44;96320.97;;;14.82;100.00
70954;BME280;58618;47.490;8.736;2022-09-24T09:59:34;96322.38;;;14.88;100.00
70954;BME280;58618;47.490;8.736;2022-09-24T10:02:24;96325.41;;;14.81;100.00
70954;BME280;58618;47.490;8.736;2022-09-24T10:05:19;96320.97;;;14.73;100.00
70954;BME280;58618;47.490;8.736;2022-09-24T10:08:19;96321.44;;;14.75;100.00
70954;BME280;58618;47.490;8.736;2022-09-24T10:11:14;96320.69;;;14.74;100.00
70954;BME280;58618;47.490;8.736;2022-09-24T10:14:02;96318.66;;;14.63;100.00
70954;BME280;58618;47.490;8.736;2022-09-24T10:16:53;96324.16;;;14.61;100.00
70954;BME280;58618;47.490;8.736;2022-09-24T10:19:42;96331.34;;;14.64;100.00
70954;BME280;58618;47.490;8.736;2022-09-24T10:22:34;96325.63;;;14.45;100.00
70954;BME280;58618;47.490;8.736;2022-09-24T10:25:24;96302.13;;;14.42;100.00
70954;BME280;58618;47.490;8.736;2022-09-24T10:28:17;96305.78;;;14.41;100.00
70954;BME280;58618;47.490;8.736;2022-09-24T10:31:28;96316.25;;;14.75;100.00
70954;BME280;58618;47.490;8.736;2022-09-24T10:34:20;96320.84;;;14.87;100.00
70954;BME280;58618;47.490;8.736;2022-09-24T10:37:13;96319.50;;;15.06;100.00
70954;BME280;58618;47.490;8.736;2022-09-24T10:40:07;96317.50;;;15.20;100.00
70954;BME280;58618;47.490;8.736;2022-09-24T10:42:59;96306.34;;;15.20;100.00
70954;BME280;58618;47.490;8.736;2022-09-24T10:46:01;96324.06;;;15.18;100.00
70954;BME280;58618;47.490;8.736;2022-09-24T10:48:57;96325.94;;;15.26;100.00
70954;BME280;58618;47.490;8.736;2022-09-24T10:51:56;96315.69;;;15.21;100.00
70954;BME280;58618;47.490;8.736;2022-09-24T10:54:55;96318.28;;;15.04;100.00
70954;BME280;58618;47.490;8.736;2022-09-24T10:57:50;96321.34;;;15.06;100.00
70954;BME280;58618;47.490;8.736;2022-09-24T11:00:48;96309.56;;;15.08;100.00
70954;BME280;58618;47.490;8.736;2022-09-24T11:03:59;96313.69;;;15.18;100.00
70954;BME280;58618;47.490;8.736;2022-09-24T11:07:19;96308.66;;;15.30;100.00
70954;BME280;58618;47.490;8.736;2022-09-24T11:10:20;96311.88;;;15.27;100.00
70954;BME280;58618;47.490;8.736;2022-09-24T11:13:13;96320.56;;;15.40;100.00
70954;BME280;58618;47.490;8.736;2022-09-24T11:16:27;96311.09;;;15.52;100.00
70954;BME280;58618;47.490;8.736;2022-09-24T11:19:40;96307.25;;;15.41;100.00
70954;BME280;58618;47.490;8.736;2022-09-24T11:22:44;96303.88;;;15.67;100.00
70954;BME280;58618;47.490;8.736;2022-09-24T11:25:40;96304.53;;;15.63;100.00
70954;BME280;58618;47.490;8.736;2022-09-24T11:29:06;96300.53;;;15.66;99.45
70954;BME280;58618;47.490;8.736;2022-09-24T11:32:04;96301.38;;;15.96;100.00
70954;BME280;58618;47.490;8.736;2022-09-24T11:35:11;96292.44;;;16.14;100.00
70954;BME280;58618;47.490;8.736;2022-09-24T11:38:08;96295.75;;;16.23;99.11
70954;BME280;58618;47.490;8.736;2022-09-24T11:41:10;96299.22;;;15.98;98.93
70954;BME280;58618;47.490;8.736;2022-09-24T11:44:13;96294.97;;;15.85;96.34
70954;BME280;58618;47.490;8.736;2022-09-24T11:47:16;96284.44;;;16.19;99.82
70954;BME280;58618;47.490;8.736;2022-09-24T11:50:22;96274.44;;;16.30;96.29
70954;BME280;58618;47.490;8.736;2022-09-24T11:53:23;96272.34;;;16.53;96.62
70954;BME280;58618;47.490;8.736;2022-09-24T11:56:16;96275.31;;;16.72;94.43
70954;BME280;58618;47.490;8.736;2022-09-24T11:59:12;96275.31;;;16.72;94.09
70954;BME280;58618;47.490;8.736;2022-09-24T12:02:09;96264.38;;;16.28;92.27
70954;BME280;58618;47.490;8.736;2022-09-24T12:05:02;96268.03;;;16.27;91.54
70954;BME280;58618;47.490;8.736;2022-09-24T12:07:54;96269.91;;;16.47;92.46
70954;BME280;58618;47.490;8.736;2022-09-24T12:10:48;96263.81;;;16.73;91.28
70954;BME280;58618;47.490;8.736;2022-09-24T12:13:40;96261.75;;;16.58;89.38
70954;BME280;58618;47.490;8.736;2022-09-24T12:16:32;96259.88;;;16.37;90.88
70954;BME280;58618;47.490;8.736;2022-09-24T12:19:26;96245.03;;;16.29;91.13
70954;BME280;58618;47.490;8.736;2022-09-24T12:22:16;96258.84;;;15.92;94.40
70954;BME280;58618;47.490;8.736;2022-09-24T12:25:09;96256.34;;;16.04;92.08
70954;BME280;58618;47.490;8.736;2022-09-24T12:27:59;96261.72;;;15.99;92.80
70954;BME280;58618;47.490;8.736;2022-09-24T12:30:51;96259.19;;;15.82;92.64
70954;BME280;58618;47.490;8.736;2022-09-24T12:34:04;96252.31;;;16.15;96.37
70954;BME280;58618;47.490;8.736;2022-09-24T12:37:00;96257.94;;;16.26;95.56
70954;BME280;58618;47.490;8.736;2022-09-24T12:39:52;96252.66;;;16.05;93.72
70954;BME280;58618;47.490;8.736;2022-09-24T12:42:46;96244.63;;;15.89;92.78
70954;BME280;58618;47.490;8.736;2022-09-24T12:45:37;96242.63;;;15.86;93.80
70954;BME280;58618;47.490;8.736;2022-09-24T12:48:25;96240.19;;;15.90;95.38
70954;BME280;58618;47.490;8.736;2022-09-24T12:51:12;96241.81;;;15.56;95.89
70954;BME280;58618;47.490;8.736;2022-09-24T12:54:05;96241.22;;;15.42;95.05
70954;BME280;58618;47.490;8.736;2022-09-24T12:57:05;96225.31;;;15.35;94.61
70954;BME280;58618;47.490;8.736;2022-09-24T12:59:54;96242.75;;;15.43;96.13
70954;BME280;58618;47.490;8.736;2022-09-24T13:02:45;96233.13;;;15.18;97.47
70954;BME280;58618;47.490;8.736;2022-09-24T13:05:45;96241.88;;;14.96;99.67
70954;BME280;58618;47.490;8.736;2022-09-24T13:08:37;96233.94;;;14.93;98.33
70954;BME280;58618;47.490;8.736;2022-09-24T13:11:28;96233.94;;;14.93;100.00
70954;BME280;58618;47.490;8.736;2022-09-24T13:14:19;96221.22;;;15.08;98.18
70954;BME280;58618;47.490;8.736;2022-09-24T13:17:07;96226.88;;;15.02;97.16
70954;BME280;58618;47.490;8.736;2022-09-24T13:19:58;96228.84;;;15.31;100.00
70954;BME280;58618;47.490;8.736;2022-09-24T13:22:54;96235.25;;;15.42;100.00
70954;BME280;58618;47.490;8.736;2022-09-24T13:25:53;96233.59;;;15.54;99.79
70954;BME280;58618;47.490;8.736;2022-09-24T13:28:52;96226.38;;;15.43;96.23
70954;BME280;58618;47.490;8.736;2022-09-24T13:31:45;96232.06;;;15.53;100.00
70954;BME280;58618;47.490;8.736;2022-09-24T13:34:36;96221.69;;;15.19;100.00
70954;BME280;58618;47.490;8.736;2022-09-24T13:37:32;96235.91;;;15.13;100.00
70954;BME280;58618;47.490;8.736;2022-09-24T13:40:23;96230.84;;;15.08;100.00
70954;BME280;58618;47.490;8.736;2022-09-24T13:43:15;96225.78;;;15.29;100.00
70954;BME280;58618;47.490;8.736;2022-09-24T13:46:09;96225.31;;;15.52;99.35
70954;BME280;58618;47.490;8.736;2022-09-24T13:49:00;96229.03;;;15.89;100.00
70954;BME280;58618;47.490;8.736;2022-09-24T13:51:59;96217.84;;;15.89;97.53
70954;BME280;58618;47.490;8.736;2022-09-24T13:54:55;96209.88;;;15.94;98.20
70954;BME280;58618;47.490;8.736;2022-09-24T13:57:46;96223.25;;;16.13;96.06
70954;BME280;58618;47.490;8.736;2022-09-24T14:00:36;96220.28;;;15.94;93.61
70954;BME280;58618;47.490;8.736;2022-09-24T14:03:25;96218.19;;;15.79;95.58
70954;BME280;58618;47.490;8.736;2022-09-24T14:06:15;96211.34;;;15.66;95.94
70954;BME280;58618;47.490;8.736;2022-09-24T14:09:14;96207.78;;;15.79;98.77
70954;BME280;58618;47.490;8.736;2022-09-24T14:12:13;96210.56;;;15.74;100.00
70954;BME280;58618;47.490;8.736;2022-09-24T14:15:06;96209.59;;;15.87;98.50
70954;BME280;58618;47.490;8.736;2022-09-24T14:17:57;96196.41;;;15.92;97.37
70954;BME280;58618;47.490;8.736;2022-09-24T14:20:47;96202.66;;;15.99;99.41
70954;BME280;58618;47.490;8.736;2022-09-24T14:23:39;96203.94;;;16.14;100.00
70954;BME280;58618;47.490;8.736;2022-09-24T14:26:30;96198.41;;;15.95;97.75
70954;BME280;58618;47.490;8.736;2022-09-24T14:29:21;96177.34;;;15.79;97.65
70954;BME280;58618;47.490;8.736;2022-09-24T14:32:20;96186.69;;;16.10;100.00
70954;BME280;58618;47.490;8.736;2022-09-24T14:35:17;96187.59;;;15.76;95.74
70954;BME280;58618;47.490;8.736;2022-09-24T14:38:06;96179.06;;;15.75;98.08
70954;BME280;58618;47.490;8.736;2022-09-24T14:40:59;96184.44;;;15.70;96.38
70954;BME280;58618;47.490;8.736;2022-09-24T14:43:50;96183.31;;;15.80;99.12
70954;BME280;58618;47.490;8.736;2022-09-24T14:46:45;96184.94;;;15.93;97.47
70954;BME280;58618;47.490;8.736;2022-09-24T14:49:42;96182.47;;;15.96;95.29
70954;BME280;58618;47.490;8.736;2022-09-24T14:52:31;96185.38;;;15.95;97.72
70954;BME280;58618;47.490;8.736;2022-09-24T14:55:19;96189.59;;;15.79;97.81
70954;BME280;58618;47.490;8.736;2022-09-24T14:58:22;96169.31;;;15.55;97.89
70954;BME280;58618;47.490;8.736;2022-09-24T15:01:12;96174.34;;;15.98;100.00
70954;BME280;58618;47.490;8.736;2022-09-24T15:04:04;96183.53;;;16.25;99.33